sensor_id;sensor_type;location;lat;lon;timestamp;pressure;altitude;pressure_sealevel;temperature;humidity
36834;BME280;48003;52.084;5.224;2022-07-15T00:00:40;102330.0;;;19.16;57.01
36834;BME280;48003;52.084;5.224;2022-07-15T00:02:26;102330.0;;;19.14;57.14
36834;BME280;48003;52.084;5.224;2022-07-15T00:04:12;102330.0;;;19.18;56.9
36834;BME280;48003;52.084;5.224;2022-07-15T00:05:59;102331.0;;;19.11;57.23
36834;BME280;48003;52.084;5.224;2022-07-15T00:10:35;102332.0;;;18.93;57.58
36834;BME280;48003;52.084;5.224;2022-07-15T00:12:22;102326.0;;;19.11;57.18
36834;BME280;48003;52.084;5.224;2022-07-15T00:15:54;102328.0;;;19.16;57.21
36834;BME280;48003;52.084;5.224;2022-07-15T00:17:40;102332.0;;;18.97;57.46
36834;BME280;48003;52.084;5.224;2022-07-15T00:19:27;102331.0;;;19.0;57.51
36834;BME280;48003;52.084;5.224;2022-07-15T00:21:13;102331.0;;;18.98;57.62
36834;BME280;48003;52.084;5.224;2022-07-15T00:23:01;102328.0;;;18.95;57.77
36834;BME280;48003;52.084;5.224;2022-07-15T00:24:47;102327.0;;;18.87;57.96
36834;BME280;48003;52.084;5.224;2022-07-15T00:28:20;102326.0;;;18.95;57.88
36834;BME280;48003;52.084;5.224;2022-07-15T00:30:09;102325.0;;;18.86;58.12
36834;BME280;48003;52.084;5.224;2022-07-15T00:31:56;102326.0;;;18.8;58.34
36834;BME280;48003;52.084;5.224;2022-07-15T00:33:42;102326.0;;;18.8;58.32
36834;BME280;48003;52.084;5.224;2022-07-15T00:35:29;102325.0;;;18.81;58.22
36834;BME280;48003;52.084;5.224;2022-07-15T00:39:04;102325.0;;;18.86;58.2
36834;BME280;48003;52.084;5.224;2022-07-15T00:40:51;102322.0;;;18.84;58.14
36834;BME280;48003;52.084;5.224;2022-07-15T00:42:44;102323.0;;;18.79;58.19
36834;BME280;48003;52.084;5.224;2022-07-15T00:46:18;102317.0;;;18.75;58.28
36834;BME280;48003;52.084;5.224;2022-07-15T00:48:05;102317.0;;;18.5;59.0
36834;BME280;48003;52.084;5.224;2022-07-15T00:51:42;102317.0;;;18.36;59.65
36834;BME280;48003;52.084;5.224;2022-07-15T00:53:30;102318.0;;;18.27;59.99
36834;BME280;48003;52.084;5.224;2022-07-15T00:55:21;102314.0;;;18.16;60.28
36834;BME280;48003;52.084;5.224;2022-07-15T00:57:09;102315.0;;;18.09;60.47
36834;BME280;48003;52.084;5.224;2022-07-15T00:58:57;102315.0;;;18.04;60.68
36834;BME280;48003;52.084;5.224;2022-07-15T01:00:47;102308.0;;;17.95;61.04
36834;BME280;48003;52.084;5.224;2022-07-15T01:02:34;102313.0;;;17.86;61.34
36834;BME280;48003;52.084;5.224;2022-07-15T01:06:08;102310.0;;;17.78;61.54
36834;BME280;48003;52.084;5.224;2022-07-15T01:07:54;102306.0;;;17.7;61.74
36834;BME280;48003;52.084;5.224;2022-07-15T01:09:40;102306.0;;;17.7;61.81
36834;BME280;48003;52.084;5.224;2022-07-15T01:11:28;102305.0;;;17.62;62.04
36834;BME280;48003;52.084;5.224;2022-07-15T01:13:15;102302.0;;;17.55;62.32
36834;BME280;48003;52.084;5.224;2022-07-15T01:15:01;102306.0;;;17.5;62.58
36834;BME280;48003;52.084;5.224;2022-07-15T01:18:34;102307.0;;;17.47;62.7
36834;BME280;48003;52.084;5.224;2022-07-15T01:20:20;102312.0;;;17.46;62.85
36834;BME280;48003;52.084;5.224;2022-07-15T01:22:07;102308.0;;;17.45;62.89
36834;BME280;48003;52.084;5.224;2022-07-15T01:23:54;102315.0;;;17.38;63.04
36834;BME280;48003;52.084;5.224;2022-07-15T01:25:40;102314.0;;;17.32;63.13
36834;BME280;48003;52.084;5.224;2022-07-15T01:31:00;102319.0;;;17.27;63.38
36834;BME280;48003;52.084;5.224;2022-07-15T01:32:47;102319.0;;;17.21;63.45
36834;BME280;48003;52.084;5.224;2022-07-15T01:34:34;102321.0;;;17.22;63.5
36834;BME280;48003;52.084;5.224;2022-07-15T01:36:20;102322.0;;;17.2;63.6
36834;BME280;48003;52.084;5.224;2022-07-15T01:38:07;102327.0;;;17.16;63.78
36834;BME280;48003;52.084;5.224;2022-07-15T01:41:41;102330.0;;;17.14;64.06
36834;BME280;48003;52.084;5.224;2022-07-15T01:43:28;102326.0;;;17.09;64.19
36834;BME280;48003;52.084;5.224;2022-07-15T01:45:14;102331.0;;;17.05;64.25
36834;BME280;48003;52.084;5.224;2022-07-15T01:47:02;102330.0;;;17.11;64.12
36834;BME280;48003;52.084;5.224;2022-07-15T01:49:52;102330.0;;;17.09;64.05
36834;BME280;48003;52.084;5.224;2022-07-15T01:51:39;102330.0;;;17.06;64.28
36834;BME280;48003;52.084;5.224;2022-07-15T01:53:27;102332.0;;;17.06;64.23
36834;BME280;48003;52.084;5.224;2022-07-15T01:55:14;102327.0;;;17.0;64.47
36834;BME280;48003;52.084;5.224;2022-07-15T01:57:00;102330.0;;;16.97;64.64
36834;BME280;48003;52.084;5.224;2022-07-15T02:00:34;102330.0;;;16.93;64.67
36834;BME280;48003;52.084;5.224;2022-07-15T02:02:21;102326.0;;;16.89;64.84
36834;BME280;48003;52.084;5.224;2022-07-15T02:04:07;102328.0;;;16.91;64.86
36834;BME280;48003;52.084;5.224;2022-07-15T02:05:53;102327.0;;;16.93;64.95
36834;BME280;48003;52.084;5.224;2022-07-15T02:07:40;102330.0;;;16.9;65.0
36834;BME280;48003;52.084;5.224;2022-07-15T02:09:26;102328.0;;;16.86;65.11
36834;BME280;48003;52.084;5.224;2022-07-15T02:12:59;102326.0;;;16.84;65.16
36834;BME280;48003;52.084;5.224;2022-07-15T02:14:45;102327.0;;;16.86;65.03
36834;BME280;48003;52.084;5.224;2022-07-15T02:16:33;102326.0;;;16.84;65.17
36834;BME280;48003;52.084;5.224;2022-07-15T02:18:19;102327.0;;;16.8;65.25
36834;BME280;48003;52.084;5.224;2022-07-15T02:20:08;102326.0;;;16.8;65.22
36834;BME280;48003;52.084;5.224;2022-07-15T02:21:55;102326.0;;;16.7;65.55
36834;BME280;48003;52.084;5.224;2022-07-15T02:25:29;102327.0;;;16.7;65.5
36834;BME280;48003;52.084;5.224;2022-07-15T02:27:17;102325.0;;;16.7;65.44
36834;BME280;48003;52.084;5.224;2022-07-15T02:29:04;102327.0;;;16.68;65.47
36834;BME280;48003;52.084;5.224;2022-07-15T02:30:50;102330.0;;;16.68;65.59
36834;BME280;48003;52.084;5.224;2022-07-15T02:32:37;102327.0;;;16.65;65.77
36834;BME280;48003;52.084;5.224;2022-07-15T02:36:11;102328.0;;;16.63;66.03
36834;BME280;48003;52.084;5.224;2022-07-15T02:37:59;102330.0;;;16.62;65.95
36834;BME280;48003;52.084;5.224;2022-07-15T02:39:46;102327.0;;;16.61;65.94
36834;BME280;48003;52.084;5.224;2022-07-15T02:41:32;102324.0;;;16.65;65.83
36834;BME280;48003;52.084;5.224;2022-07-15T02:43:20;102330.0;;;16.66;65.69
36834;BME280;48003;52.084;5.224;2022-07-15T02:45:06;102330.0;;;16.62;65.83
36834;BME280;48003;52.084;5.224;2022-07-15T02:50:27;102328.0;;;16.62;65.8
36834;BME280;48003;52.084;5.224;2022-07-15T02:52:15;102328.0;;;16.59;65.97
36834;BME280;48003;52.084;5.224;2022-07-15T02:54:01;102331.0;;;16.59;66.06
36834;BME280;48003;52.084;5.224;2022-07-15T02:55:47;102330.0;;;16.61;65.94
36834;BME280;48003;52.084;5.224;2022-07-15T02:57:35;102334.0;;;16.62;65.87
36834;BME280;48003;52.084;5.224;2022-07-15T03:01:08;102337.0;;;16.59;65.91
36834;BME280;48003;52.084;5.224;2022-07-15T03:02:54;102335.0;;;16.56;65.99
36834;BME280;48003;52.084;5.224;2022-07-15T03:04:41;102335.0;;;16.55;65.97
36834;BME280;48003;52.084;5.224;2022-07-15T03:06:27;102339.0;;;16.5;66.12
36834;BME280;48003;52.084;5.224;2022-07-15T03:08:14;102343.0;;;16.54;65.97
36834;BME280;48003;52.084;5.224;2022-07-15T03:11:48;102342.0;;;16.47;66.08
36834;BME280;48003;52.084;5.224;2022-07-15T03:13:34;102345.0;;;16.47;66.0
36834;BME280;48003;52.084;5.224;2022-07-15T03:15:20;102344.0;;;16.45;66.08
36834;BME280;48003;52.084;5.224;2022-07-15T03:17:07;102343.0;;;16.43;66.1
36834;BME280;48003;52.084;5.224;2022-07-15T03:18:54;102341.0;;;16.45;66.08
36834;BME280;48003;52.084;5.224;2022-07-15T03:20:40;102346.0;;;16.41;66.24
36834;BME280;48003;52.084;5.224;2022-07-15T03:24:14;102341.0;;;16.37;66.34
36834;BME280;48003;52.084;5.224;2022-07-15T03:26:01;102343.0;;;16.37;66.47
36834;BME280;48003;52.084;5.224;2022-07-15T03:27:47;102346.0;;;16.34;66.61
36834;BME280;48003;52.084;5.224;2022-07-15T03:29:34;102350.0;;;16.32;66.64
36834;BME280;48003;52.084;5.224;2022-07-15T03:31:21;102352.0;;;16.32;66.7
36834;BME280;48003;52.084;5.224;2022-07-15T03:33:07;102351.0;;;16.31;66.8
36834;BME280;48003;52.084;5.224;2022-07-15T03:36:43;102355.0;;;16.29;66.69
36834;BME280;48003;52.084;5.224;2022-07-15T03:38:30;102355.0;;;16.27;66.73
36834;BME280;48003;52.084;5.224;2022-07-15T03:40:17;102358.0;;;16.21;66.88
36834;BME280;48003;52.084;5.224;2022-07-15T03:42:04;102366.0;;;16.18;66.94
36834;BME280;48003;52.084;5.224;2022-07-15T03:43:50;102364.0;;;16.18;66.98
36834;BME280;48003;52.084;5.224;2022-07-15T03:45:36;102367.0;;;16.18;66.91
36834;BME280;48003;52.084;5.224;2022-07-15T03:49:08;102369.0;;;16.18;66.97
36834;BME280;48003;52.084;5.224;2022-07-15T03:50:55;102369.0;;;16.12;67.17
36834;BME280;48003;52.084;5.224;2022-07-15T03:52:41;102371.0;;;16.11;67.16
36834;BME280;48003;52.084;5.224;2022-07-15T03:54:27;102377.0;;;16.11;67.3
36834;BME280;48003;52.084;5.224;2022-07-15T03:56:13;102377.0;;;16.09;67.23
36834;BME280;48003;52.084;5.224;2022-07-15T03:59:46;102384.0;;;16.11;67.16
36834;BME280;48003;52.084;5.224;2022-07-15T04:01:33;102385.0;;;16.15;66.97
36834;BME280;48003;52.084;5.224;2022-07-15T04:03:20;102384.0;;;16.11;66.98
36834;BME280;48003;52.084;5.224;2022-07-15T04:05:07;102386.0;;;16.12;66.95
36834;BME280;48003;52.084;5.224;2022-07-15T04:06:55;102390.0;;;16.09;66.97
36834;BME280;48003;52.084;5.224;2022-07-15T04:08:42;102391.0;;;16.07;67.11
36834;BME280;48003;52.084;5.224;2022-07-15T04:12:15;102389.0;;;16.09;67.08
36834;BME280;48003;52.084;5.224;2022-07-15T04:14:01;102391.0;;;16.09;67.2
36834;BME280;48003;52.084;5.224;2022-07-15T04:15:48;102389.0;;;16.14;67.14
36834;BME280;48003;52.084;5.224;2022-07-15T04:17:35;102391.0;;;16.13;67.22
36834;BME280;48003;52.084;5.224;2022-07-15T04:19:22;102390.0;;;16.11;67.27
36834;BME280;48003;52.084;5.224;2022-07-15T04:21:09;102393.0;;;16.15;67.19
36834;BME280;48003;52.084;5.224;2022-07-15T04:24:42;102390.0;;;16.12;67.28
36834;BME280;48003;52.084;5.224;2022-07-15T04:26:29;102400.0;;;16.09;67.41
36834;BME280;48003;52.084;5.224;2022-07-15T04:28:15;102398.0;;;16.13;67.36
36834;BME280;48003;52.084;5.224;2022-07-15T04:30:02;102396.0;;;16.16;67.27
36834;BME280;48003;52.084;5.224;2022-07-15T04:31:49;102398.0;;;16.18;67.13
36834;BME280;48003;52.084;5.224;2022-07-15T04:35:21;102396.0;;;16.22;67.3
36834;BME280;48003;52.084;5.224;2022-07-15T04:37:07;102393.0;;;16.3;67.25
36834;BME280;48003;52.084;5.224;2022-07-15T04:38:53;102396.0;;;16.28;67.52
36834;BME280;48003;52.084;5.224;2022-07-15T04:40:41;102403.0;;;16.31;67.39
36834;BME280;48003;52.084;5.224;2022-07-15T04:42:28;102403.0;;;16.36;67.27
36834;BME280;48003;52.084;5.224;2022-07-15T04:44:14;102404.0;;;16.43;67.25
36834;BME280;48003;52.084;5.224;2022-07-15T04:47:48;102401.0;;;16.48;67.16
36834;BME280;48003;52.084;5.224;2022-07-15T04:52:42;102400.0;;;16.56;67.36
36834;BME280;48003;52.084;5.224;2022-07-15T04:56:15;102393.0;;;16.59;67.49
36834;BME280;48003;52.084;5.224;2022-07-15T04:58:02;102394.0;;;16.61;67.33
36834;BME280;48003;52.084;5.224;2022-07-15T04:59:49;102398.0;;;16.68;67.24
36834;BME280;48003;52.084;5.224;2022-07-15T05:01:35;102394.0;;;16.73;66.78
36834;BME280;48003;52.084;5.224;2022-07-15T05:03:21;102394.0;;;16.9;66.44
36834;BME280;48003;52.084;5.224;2022-07-15T05:05:08;102390.0;;;17.02;66.05
36834;BME280;48003;52.084;5.224;2022-07-15T05:08:44;102393.0;;;17.25;65.08
36834;BME280;48003;52.084;5.224;2022-07-15T05:10:30;102395.0;;;17.38;64.31
36834;BME280;48003;52.084;5.224;2022-07-15T05:12:16;102395.0;;;17.43;64.12
36834;BME280;48003;52.084;5.224;2022-07-15T05:14:02;102395.0;;;17.56;63.3
36834;BME280;48003;52.084;5.224;2022-07-15T05:15:49;102395.0;;;17.55;63.0
36834;BME280;48003;52.084;5.224;2022-07-15T05:19:26;102396.0;;;17.73;62.49
36834;BME280;48003;52.084;5.224;2022-07-15T05:21:13;102398.0;;;17.72;62.56
36834;BME280;48003;52.084;5.224;2022-07-15T05:23:00;102400.0;;;17.87;61.88
36834;BME280;48003;52.084;5.224;2022-07-15T05:24:46;102397.0;;;17.93;61.71
36834;BME280;48003;52.084;5.224;2022-07-15T05:26:34;102394.0;;;17.95;61.81
36834;BME280;48003;52.084;5.224;2022-07-15T05:28:20;102396.0;;;18.03;61.6
36834;BME280;48003;52.084;5.224;2022-07-15T05:31:56;102396.0;;;18.09;61.46
36834;BME280;48003;52.084;5.224;2022-07-15T05:33:42;102400.0;;;18.06;61.42
36834;BME280;48003;52.084;5.224;2022-07-15T05:35:29;102399.0;;;18.25;61.1
36834;BME280;48003;52.084;5.224;2022-07-15T05:37:16;102399.0;;;18.28;61.09
36834;BME280;48003;52.084;5.224;2022-07-15T05:39:03;102399.0;;;18.45;60.62
36834;BME280;48003;52.084;5.224;2022-07-15T05:40:49;102394.0;;;18.45;60.49
36834;BME280;48003;52.084;5.224;2022-07-15T05:44:23;102400.0;;;18.34;61.01
36834;BME280;48003;52.084;5.224;2022-07-15T05:46:11;102401.0;;;18.5;60.44
36834;BME280;48003;52.084;5.224;2022-07-15T05:47:58;102401.0;;;18.5;60.55
36834;BME280;48003;52.084;5.224;2022-07-15T05:49:44;102403.0;;;18.54;60.64
36834;BME280;48003;52.084;5.224;2022-07-15T05:51:30;102405.0;;;18.36;60.82
36834;BME280;48003;52.084;5.224;2022-07-15T05:53:16;102403.0;;;18.52;60.81
36834;BME280;48003;52.084;5.224;2022-07-15T05:56:51;102401.0;;;18.57;60.42
36834;BME280;48003;52.084;5.224;2022-07-15T05:58:38;102397.0;;;18.48;60.28
36834;BME280;48003;52.084;5.224;2022-07-15T06:00:24;102397.0;;;18.46;60.48
36834;BME280;48003;52.084;5.224;2022-07-15T06:02:10;102397.0;;;18.5;60.34
36834;BME280;48003;52.084;5.224;2022-07-15T06:03:56;102399.0;;;18.64;59.77
36834;BME280;48003;52.084;5.224;2022-07-15T06:07:30;102400.0;;;18.8;59.33
36834;BME280;48003;52.084;5.224;2022-07-15T06:09:16;102402.0;;;18.86;59.03
36834;BME280;48003;52.084;5.224;2022-07-15T06:11:02;102401.0;;;18.95;58.88
36834;BME280;48003;52.084;5.224;2022-07-15T06:12:48;102400.0;;;18.75;58.96
36834;BME280;48003;52.084;5.224;2022-07-15T06:14:35;102393.0;;;19.0;58.71
36834;BME280;48003;52.084;5.224;2022-07-15T06:16:22;102397.0;;;18.81;59.14
36834;BME280;48003;52.084;5.224;2022-07-15T06:19:56;102395.0;;;18.84;58.89
36834;BME280;48003;52.084;5.224;2022-07-15T06:21:42;102396.0;;;18.97;58.34
36834;BME280;48003;52.084;5.224;2022-07-15T06:23:28;102394.0;;;19.0;58.3
36834;BME280;48003;52.084;5.224;2022-07-15T06:25:14;102391.0;;;19.13;57.71
36834;BME280;48003;52.084;5.224;2022-07-15T06:27:00;102392.0;;;19.02;57.74
36834;BME280;48003;52.084;5.224;2022-07-15T06:28:47;102400.0;;;19.27;57.15
36834;BME280;48003;52.084;5.224;2022-07-15T06:32:20;102392.0;;;19.11;57.32
36834;BME280;48003;52.084;5.224;2022-07-15T06:34:06;102394.0;;;19.13;56.85
36834;BME280;48003;52.084;5.224;2022-07-15T06:35:55;102401.0;;;19.21;56.24
36834;BME280;48003;52.084;5.224;2022-07-15T06:37:41;102404.0;;;19.27;55.89
36834;BME280;48003;52.084;5.224;2022-07-15T06:39:27;102405.0;;;19.09;56.04
36834;BME280;48003;52.084;5.224;2022-07-15T06:43:00;102403.0;;;19.22;56.0
36834;BME280;48003;52.084;5.224;2022-07-15T06:44:47;102406.0;;;19.32;55.74
36834;BME280;48003;52.084;5.224;2022-07-15T06:46:35;102408.99999999999;;;19.57;55.56
36834;BME280;48003;52.084;5.224;2022-07-15T06:48:21;102403.0;;;19.48;55.78
36834;BME280;48003;52.084;5.224;2022-07-15T06:51:55;102404.0;;;19.68;55.64
36834;BME280;48003;52.084;5.224;2022-07-15T06:55:30;102407.0;;;19.81;55.06
36834;BME280;48003;52.084;5.224;2022-07-15T06:57:17;102409.99999999999;;;19.71;54.99
36834;BME280;48003;52.084;5.224;2022-07-15T06:59:03;102413.00000000001;;;19.56;55.19
36834;BME280;48003;52.084;5.224;2022-07-15T07:00:50;102415.00000000001;;;19.59;55.46
36834;BME280;48003;52.084;5.224;2022-07-15T07:02:37;102416.00000000001;;;19.82;55.08
36834;BME280;48003;52.084;5.224;2022-07-15T07:04:24;102416.00000000001;;;19.66;55.17
36834;BME280;48003;52.084;5.224;2022-07-15T07:07:58;102411.99999999999;;;19.86;54.72
36834;BME280;48003;52.084;5.224;2022-07-15T07:09:45;102406.0;;;20.02;54.31
36834;BME280;48003;52.084;5.224;2022-07-15T07:11:33;102416.00000000001;;;19.79;54.61
36834;BME280;48003;52.084;5.224;2022-07-15T07:13:19;102413.00000000001;;;19.86;54.23
36834;BME280;48003;52.084;5.224;2022-07-15T07:15:08;102414.00000000001;;;19.93;54.16
36834;BME280;48003;52.084;5.224;2022-07-15T07:16:55;102421.0;;;19.77;54.42
36834;BME280;48003;52.084;5.224;2022-07-15T07:20:29;102416.00000000001;;;20.03;52.92
36834;BME280;48003;52.084;5.224;2022-07-15T07:22:16;102417.0;;;20.09;52.52
36834;BME280;48003;52.084;5.224;2022-07-15T07:24:03;102418.0;;;20.03;53.2
36834;BME280;48003;52.084;5.224;2022-07-15T07:25:49;102417.0;;;20.2;52.59
36834;BME280;48003;52.084;5.224;2022-07-15T07:27:36;102417.0;;;20.03;53.68
36834;BME280;48003;52.084;5.224;2022-07-15T07:31:12;102416.00000000001;;;20.0;54.0
36834;BME280;48003;52.084;5.224;2022-07-15T07:33:00;102414.00000000001;;;20.2;52.99
36834;BME280;48003;52.084;5.224;2022-07-15T07:34:46;102417.0;;;20.03;53.27
36834;BME280;48003;52.084;5.224;2022-07-15T07:36:32;102417.0;;;20.03;52.04
36834;BME280;48003;52.084;5.224;2022-07-15T07:38:20;102416.00000000001;;;20.34;51.45
36834;BME280;48003;52.084;5.224;2022-07-15T07:40:07;102419.0;;;20.31;51.04
36834;BME280;48003;52.084;5.224;2022-07-15T07:43:40;102421.0;;;20.41;50.58
36834;BME280;48003;52.084;5.224;2022-07-15T07:45:28;102422.0;;;20.36;49.42
36834;BME280;48003;52.084;5.224;2022-07-15T07:47:16;102416.00000000001;;;20.52;48.18
36834;BME280;48003;52.084;5.224;2022-07-15T07:49:03;102414.00000000001;;;20.59;47.62
36834;BME280;48003;52.084;5.224;2022-07-15T07:50:52;102414.00000000001;;;20.67;47.15
36834;BME280;48003;52.084;5.224;2022-07-15T07:52:39;102420.0;;;20.5;49.22
36834;BME280;48003;52.084;5.224;2022-07-15T07:56:13;102419.0;;;20.76;49.35
36834;BME280;48003;52.084;5.224;2022-07-15T07:58:01;102414.00000000001;;;20.88;48.73
36834;BME280;48003;52.084;5.224;2022-07-15T07:59:48;102421.0;;;20.87;48.55
36834;BME280;48003;52.084;5.224;2022-07-15T08:01:34;102423.0;;;20.55;49.76
36834;BME280;48003;52.084;5.224;2022-07-15T08:03:21;102422.0;;;20.57;50.01
36834;BME280;48003;52.084;5.224;2022-07-15T08:05:09;102419.0;;;20.6;49.4
36834;BME280;48003;52.084;5.224;2022-07-15T08:08:42;102419.0;;;20.63;49.73
36834;BME280;48003;52.084;5.224;2022-07-15T08:10:28;102422.0;;;20.43;49.79
36834;BME280;48003;52.084;5.224;2022-07-15T08:12:16;102420.0;;;20.32;49.51
36834;BME280;48003;52.084;5.224;2022-07-15T08:14:02;102425.0;;;20.36;50.23
36834;BME280;48003;52.084;5.224;2022-07-15T08:15:49;102425.0;;;20.49;49.75
36834;BME280;48003;52.084;5.224;2022-07-15T08:17:36;102430.0;;;20.5;48.89
36834;BME280;48003;52.084;5.224;2022-07-15T08:21:09;102422.0;;;20.59;48.62
36834;BME280;48003;52.084;5.224;2022-07-15T08:22:59;102425.0;;;20.64;48.02
36834;BME280;48003;52.084;5.224;2022-07-15T08:24:46;102418.0;;;20.71;47.61
36834;BME280;48003;52.084;5.224;2022-07-15T08:26:32;102414.00000000001;;;20.81;47.69
36834;BME280;48003;52.084;5.224;2022-07-15T08:28:18;102408.99999999999;;;20.68;46.69
36834;BME280;48003;52.084;5.224;2022-07-15T08:30:06;102408.99999999999;;;21.15;46.57
36834;BME280;48003;52.084;5.224;2022-07-15T08:33:38;102408.99999999999;;;21.0;45.17
36834;BME280;48003;52.084;5.224;2022-07-15T08:35:26;102409.99999999999;;;20.95;44.78
36834;BME280;48003;52.084;5.224;2022-07-15T08:37:13;102414.00000000001;;;20.85;45.42
36834;BME280;48003;52.084;5.224;2022-07-15T08:39:01;102409.99999999999;;;21.19;45.71
36834;BME280;48003;52.084;5.224;2022-07-15T08:40:48;102408.0;;;21.53;46.11
36834;BME280;48003;52.084;5.224;2022-07-15T08:44:25;102406.0;;;21.7;46.38
36834;BME280;48003;52.084;5.224;2022-07-15T08:46:13;102400.0;;;21.96;45.87
36834;BME280;48003;52.084;5.224;2022-07-15T08:48:01;102399.0;;;21.99;45.64
36834;BME280;48003;52.084;5.224;2022-07-15T08:49:53;102406.0;;;21.81;46.29
36834;BME280;48003;52.084;5.224;2022-07-15T08:51:44;102401.0;;;21.92;46.59
36834;BME280;48003;52.084;5.224;2022-07-15T08:53:33;102408.0;;;21.96;46.19
36834;BME280;48003;52.084;5.224;2022-07-15T08:55:19;102404.0;;;22.03;46.16
36834;BME280;48003;52.084;5.224;2022-07-15T08:58:53;102407.0;;;22.13;46.2
36834;BME280;48003;52.084;5.224;2022-07-15T09:00:40;102409.99999999999;;;22.15;45.92
36834;BME280;48003;52.084;5.224;2022-07-15T09:02:26;102408.99999999999;;;22.03;46.45
36834;BME280;48003;52.084;5.224;2022-07-15T09:04:13;102409.99999999999;;;21.72;47.42
36834;BME280;48003;52.084;5.224;2022-07-15T09:06:01;102413.00000000001;;;21.51;45.78
36834;BME280;48003;52.084;5.224;2022-07-15T09:07:50;102409.99999999999;;;21.2;45.34
36834;BME280;48003;52.084;5.224;2022-07-15T09:11:27;102407.0;;;21.55;44.8
36834;BME280;48003;52.084;5.224;2022-07-15T09:13:25;102406.0;;;21.51;45.16
36834;BME280;48003;52.084;5.224;2022-07-15T09:15:29;102407.0;;;21.83;46.12
36834;BME280;48003;52.084;5.224;2022-07-15T09:17:21;102404.0;;;22.06;46.23
36834;BME280;48003;52.084;5.224;2022-07-15T09:19:09;102399.0;;;21.91;45.88
36834;BME280;48003;52.084;5.224;2022-07-15T09:20:56;102396.0;;;21.72;46.27
36834;BME280;48003;52.084;5.224;2022-07-15T09:22:51;102394.0;;;22.2;45.33
36834;BME280;48003;52.084;5.224;2022-07-15T09:24:43;102391.0;;;22.15;45.0
36834;BME280;48003;52.084;5.224;2022-07-15T09:28:18;102396.0;;;22.11;45.55
36834;BME280;48003;52.084;5.224;2022-07-15T09:33:41;102380.0;;;22.32;45.29
36834;BME280;48003;52.084;5.224;2022-07-15T09:36:32;102383.0;;;22.3;44.97
36834;BME280;48003;52.084;5.224;2022-07-15T09:38:23;102390.0;;;22.33;45.15
36834;BME280;48003;52.084;5.224;2022-07-15T09:40:10;102387.0;;;22.36;44.81
36834;BME280;48003;52.084;5.224;2022-07-15T09:42:05;102384.0;;;22.36;43.72
36834;BME280;48003;52.084;5.224;2022-07-15T09:43:54;102385.0;;;22.39;43.9
36834;BME280;48003;52.084;5.224;2022-07-15T09:45:40;102385.0;;;22.58;43.48
36834;BME280;48003;52.084;5.224;2022-07-15T09:49:17;102387.0;;;22.44;42.67
36834;BME280;48003;52.084;5.224;2022-07-15T09:51:20;102385.0;;;22.41;42.57
36834;BME280;48003;52.084;5.224;2022-07-15T09:53:10;102381.0;;;22.43;43.1
36834;BME280;48003;52.084;5.224;2022-07-15T09:54:58;102383.0;;;22.47;43.48
36834;BME280;48003;52.084;5.224;2022-07-15T09:56:46;102380.0;;;22.6;42.64
36834;BME280;48003;52.084;5.224;2022-07-15T09:58:36;102380.0;;;22.61;42.6
36834;BME280;48003;52.084;5.224;2022-07-15T10:00:24;102373.0;;;22.51;42.51
36834;BME280;48003;52.084;5.224;2022-07-15T10:02:10;102378.0;;;22.76;42.52
36834;BME280;48003;52.084;5.224;2022-07-15T10:05:46;102376.0;;;22.74;42.15
36834;BME280;48003;52.084;5.224;2022-07-15T10:07:36;102370.0;;;22.95;41.86
36834;BME280;48003;52.084;5.224;2022-07-15T10:09:26;102372.0;;;23.22;42.11
36834;BME280;48003;52.084;5.224;2022-07-15T10:11:14;102367.0;;;23.41;41.58
36834;BME280;48003;52.084;5.224;2022-07-15T10:13:10;102371.0;;;23.41;41.62
36834;BME280;48003;52.084;5.224;2022-07-15T10:15:19;102374.0;;;23.54;41.16
36834;BME280;48003;52.084;5.224;2022-07-15T10:17:39;102369.0;;;23.33;40.9
36834;BME280;48003;52.084;5.224;2022-07-15T10:20:40;102368.0;;;23.12;41.33
36834;BME280;48003;52.084;5.224;2022-07-15T10:23:37;102373.0;;;23.12;41.37
36834;BME280;48003;52.084;5.224;2022-07-15T10:25:57;102367.0;;;23.23;40.93
36834;BME280;48003;52.084;5.224;2022-07-15T10:27:54;102363.0;;;23.22;40.68
36834;BME280;48003;52.084;5.224;2022-07-15T10:29:44;102365.0;;;23.23;41.25
36834;BME280;48003;52.084;5.224;2022-07-15T10:31:33;102364.0;;;23.16;41.55
36834;BME280;48003;52.084;5.224;2022-07-15T10:35:33;102364.0;;;23.42;41.18
36834;BME280;48003;52.084;5.224;2022-07-15T10:37:19;102362.0;;;23.4;41.22
36834;BME280;48003;52.084;5.224;2022-07-15T10:39:07;102364.0;;;23.38;41.56
36834;BME280;48003;52.084;5.224;2022-07-15T10:41:00;102360.0;;;23.27;41.61
36834;BME280;48003;52.084;5.224;2022-07-15T10:43:02;102360.0;;;23.21;41.47
36834;BME280;48003;52.084;5.224;2022-07-15T10:45:02;102357.0;;;23.14;41.89
36834;BME280;48003;52.084;5.224;2022-07-15T10:47:16;102356.0;;;23.14;42.3
36834;BME280;48003;52.084;5.224;2022-07-15T10:49:30;102352.0;;;23.11;42.39
36834;BME280;48003;52.084;5.224;2022-07-15T10:51:48;102356.0;;;23.2;42.77
36834;BME280;48003;52.084;5.224;2022-07-15T10:53:42;102353.0;;;23.13;41.95
36834;BME280;48003;52.084;5.224;2022-07-15T10:55:30;102351.0;;;23.04;42.17
36834;BME280;48003;52.084;5.224;2022-07-15T10:57:18;102346.0;;;23.1;41.73
36834;BME280;48003;52.084;5.224;2022-07-15T10:59:07;102336.0;;;23.34;41.69
36834;BME280;48003;52.084;5.224;2022-07-15T11:00:55;102332.0;;;23.29;42.27
36834;BME280;48003;52.084;5.224;2022-07-15T11:04:49;102330.0;;;23.36;42.03
36834;BME280;48003;52.084;5.224;2022-07-15T11:07:18;102325.0;;;23.26;41.95
36834;BME280;48003;52.084;5.224;2022-07-15T11:09:43;102324.0;;;23.23;42.5
36834;BME280;48003;52.084;5.224;2022-07-15T11:11:48;102325.0;;;23.2;43.12
36834;BME280;48003;52.084;5.224;2022-07-15T11:13:50;102317.0;;;23.05;42.61
36834;BME280;48003;52.084;5.224;2022-07-15T11:15:37;102321.0;;;22.87;42.96
36834;BME280;48003;52.084;5.224;2022-07-15T11:19:24;102321.0;;;23.23;42.54
36834;BME280;48003;52.084;5.224;2022-07-15T11:21:14;102324.0;;;23.27;43.12